GBYD/BJL METAR and TAF weather

Enter ICAO airport designator
Station Type Date Time Source
GBYD METAR 2019/04/25 21:00 UTC NOAA

GBYD 252100Z 26006KT CAVOK 23/18 Q1010


Station Type Date Time Source
GBYD Decoded METAR 2019/04/25 21:00 UTC NOAA

Banjul / Yundum, Gambia, The (GBYD) 13-21N 016-48W 36M
Apr 25, 2019 - 05:00 PM EDT / 2019.04.25 2100 UTC
Wind: from the W (260 degrees) at 7 MPH (6 KT):0
Visibility: greater than 7 mile(s):0
Temperature: 73 F (23 C)
Dew Point: 64 F (18 C)
Relative Humidity: 73%
Pressure (altimeter): 29.83 in. Hg (1010 hPa)
ob: GBYD 252100Z 26006KT CAVOK 23/18 Q1010
cycle: 21

Station Type Date Time Source
GBYD TAF 2019/04/25 18:31 UTC NOAA

TAF GBYD 251730Z 2518/2624 30008KT CAVOK

Example: see airport list